createdAt,value
2022-10-11T00:01:43.103Z,2.47
2022-10-11T00:04:10.403Z,2.87
2022-10-11T00:06:37.821Z,2.70
2022-10-11T00:09:05.056Z,2.70
2022-10-11T00:11:32.241Z,2.63
2022-10-11T00:14:00.853Z,2.40
2022-10-11T00:16:28.035Z,2.03
2022-10-11T00:18:55.337Z,2.27
2022-10-11T00:21:22.669Z,2.80
2022-10-11T00:23:50.175Z,2.27
2022-10-11T00:26:17.394Z,2.40
2022-10-11T00:28:44.780Z,1.83
2022-10-11T00:31:14.100Z,2.20
2022-10-11T00:33:41.433Z,1.93
2022-10-11T00:36:09.617Z,2.27
2022-10-11T00:38:36.954Z,2.23
2022-10-11T00:41:04.218Z,1.93
2022-10-11T00:43:31.793Z,2.57
2022-10-11T00:46:04.507Z,2.10
2022-10-11T00:48:37.223Z,2.13
2022-10-11T00:51:07.080Z,2.07
2022-10-11T00:53:34.798Z,2.37
2022-10-11T00:56:04.054Z,2.00
2022-10-11T00:58:32.625Z,2.47
2022-10-11T01:00:59.933Z,2.00
2022-10-11T01:03:27.586Z,2.43
2022-10-11T01:05:56.845Z,2.23
2022-10-11T01:08:30.138Z,2.67
2022-10-11T01:10:57.542Z,1.90
2022-10-11T01:13:30.103Z,1.90
2022-10-11T01:15:59.961Z,1.90
2022-10-11T01:18:31.338Z,2.43
2022-10-11T01:21:03.630Z,2.23
2022-10-11T01:23:46.059Z,2.50
2022-10-11T01:26:24.154Z,1.90
2022-10-11T01:28:52.872Z,2.73
2022-10-11T01:31:25.575Z,2.57
2022-10-11T01:33:53.815Z,2.60
2022-10-11T01:36:26.698Z,2.20
2022-10-11T01:38:57.304Z,2.00
2022-10-11T01:41:26.259Z,2.20
2022-10-11T01:43:56.169Z,2.40
2022-10-11T01:46:25.222Z,2.17
2022-10-11T01:48:53.466Z,2.23
2022-10-11T01:51:22.489Z,2.30
2022-10-11T01:54:00.096Z,2.13
2022-10-11T01:56:34.707Z,2.50
2022-10-11T01:59:08.019Z,2.23
2022-10-11T02:01:40.085Z,2.57
2022-10-11T02:04:11.530Z,2.23
2022-10-11T02:06:42.943Z,2.13
2022-10-11T02:09:13.073Z,2.07
2022-10-11T02:11:40.398Z,2.17
2022-10-11T02:14:10.523Z,2.13
2022-10-11T02:16:41.249Z,1.97
2022-10-11T02:19:09.677Z,2.13
2022-10-11T02:21:38.603Z,2.27
2022-10-11T02:24:09.206Z,2.07
2022-10-11T02:26:37.330Z,2.57
2022-10-11T02:29:07.122Z,1.97
2022-10-11T02:31:35.388Z,2.43
2022-10-11T02:34:07.374Z,2.00
2022-10-11T02:36:44.538Z,2.03
2022-10-11T02:39:15.095Z,2.00
2022-10-11T02:41:42.516Z,2.60
2022-10-11T02:44:11.337Z,2.47
2022-10-11T02:46:39.126Z,1.87
2022-10-11T02:49:08.184Z,2.30
2022-10-11T02:51:36.819Z,2.60
2022-10-11T02:54:04.175Z,2.90
2022-10-11T02:56:31.494Z,2.37
2022-10-11T02:58:58.722Z,2.23
2022-10-11T03:01:25.996Z,2.23
2022-10-11T03:03:53.289Z,2.00
2022-10-11T03:06:28.249Z,2.00
2022-10-11T03:08:58.303Z,2.03
2022-10-11T03:11:25.582Z,2.37
2022-10-11T03:13:52.819Z,1.87
2022-10-11T03:16:19.998Z,2.00
2022-10-11T03:18:47.190Z,2.10
2022-10-11T03:21:14.395Z,2.23
2022-10-11T03:23:42.999Z,2.10
2022-10-11T03:26:10.171Z,2.67
2022-10-11T03:28:37.436Z,2.10
2022-10-11T03:31:04.799Z,2.50
2022-10-11T03:33:32.009Z,2.77
2022-10-11T03:35:59.207Z,2.10
2022-10-11T03:38:26.507Z,2.57
2022-10-11T03:40:55.197Z,2.17
2022-10-11T03:43:22.551Z,2.47
2022-10-11T03:45:49.744Z,2.33
2022-10-11T03:48:16.934Z,2.93
2022-10-11T03:50:44.199Z,2.37
2022-10-11T03:53:11.490Z,2.50
2022-10-11T03:55:39.270Z,2.13
2022-10-11T03:58:08.182Z,3.40
2022-10-11T04:00:35.577Z,2.73
2022-10-11T04:03:02.782Z,2.80
2022-10-11T04:05:30.202Z,2.67
2022-10-11T04:07:57.546Z,2.80
2022-10-11T04:10:24.890Z,2.50
2022-10-11T04:12:52.133Z,2.30
2022-10-11T04:15:20.658Z,2.17
2022-10-11T04:17:47.855Z,1.90
2022-10-11T04:20:15.069Z,2.30
2022-10-11T04:22:42.345Z,2.33
2022-10-11T04:25:10.022Z,2.07
2022-10-11T04:27:37.326Z,2.13
2022-10-11T04:30:04.741Z,2.67
2022-10-11T04:32:33.337Z,1.90
2022-10-11T04:35:00.545Z,2.20
2022-10-11T04:37:27.739Z,2.30
2022-10-11T04:39:54.979Z,2.50
2022-10-11T04:42:22.166Z,2.30
2022-10-11T04:44:49.395Z,2.80
2022-10-11T04:47:16.607Z,1.90
2022-10-11T04:49:45.152Z,2.60
2022-10-11T04:52:12.383Z,2.70
2022-10-11T04:54:39.602Z,2.27
2022-10-11T04:57:06.830Z,3.23
2022-10-11T04:59:34.157Z,2.47
2022-10-11T05:02:01.428Z,2.70
2022-10-11T05:04:29.104Z,2.40
2022-10-11T05:06:57.678Z,2.57
2022-10-11T05:09:24.862Z,2.63
2022-10-11T05:11:52.123Z,2.60
2022-10-11T05:14:19.307Z,2.20
2022-10-11T05:16:46.606Z,2.27
2022-10-11T05:19:13.775Z,2.43
2022-10-11T05:21:41.063Z,2.10
2022-10-11T05:24:10.035Z,2.07
2022-10-11T05:26:37.224Z,2.70
2022-10-11T05:29:04.566Z,2.00
2022-10-11T05:31:31.828Z,2.37
2022-10-11T05:33:59.079Z,2.70
2022-10-11T05:36:26.585Z,2.80
2022-10-11T05:38:53.798Z,2.20
2022-10-11T05:41:22.755Z,2.47
2022-10-11T05:43:49.942Z,2.63
2022-10-11T05:46:17.253Z,2.30
2022-10-11T05:48:44.501Z,2.40
2022-10-11T05:51:12.029Z,2.47
2022-10-11T05:53:39.704Z,2.53
2022-10-11T05:56:17.438Z,2.20
2022-10-11T05:58:46.002Z,2.03
2022-10-11T06:01:17.078Z,1.70
2022-10-11T06:03:44.302Z,2.53
2022-10-11T06:06:11.547Z,2.30
2022-10-11T06:08:38.930Z,2.53
2022-10-11T06:11:13.940Z,2.23
2022-10-11T06:13:41.349Z,2.83
2022-10-11T06:16:10.773Z,3.17
2022-10-11T06:18:38.103Z,3.20
2022-10-11T06:21:05.643Z,3.23
2022-10-11T06:23:32.921Z,2.93
2022-10-11T06:26:00.627Z,2.87
2022-10-11T06:28:28.363Z,3.20
2022-10-11T06:30:56.114Z,3.63
2022-10-11T06:33:25.047Z,2.87
2022-10-11T06:35:57.323Z,2.67
2022-10-11T06:38:24.568Z,2.77
2022-10-11T06:40:52.181Z,3.17
2022-10-11T06:43:19.455Z,3.20
2022-10-11T06:45:46.818Z,2.70
2022-10-11T06:48:14.003Z,2.77
2022-10-11T06:50:59.214Z,2.87
2022-10-11T06:53:27.647Z,2.93
2022-10-11T06:55:54.852Z,3.47
2022-10-11T06:58:22.063Z,3.70
2022-10-11T07:00:49.359Z,3.27
2022-10-11T07:03:16.635Z,3.27
2022-10-11T07:05:45.163Z,3.43
2022-10-11T07:08:12.944Z,3.70
2022-10-11T07:10:59.949Z,3.30
2022-10-11T07:13:43.006Z,3.37
2022-10-11T07:16:11.616Z,3.70
2022-10-11T07:18:39.320Z,3.77
2022-10-11T07:21:09.219Z,4.00
2022-10-11T07:23:36.598Z,3.37
2022-10-11T07:26:04.446Z,3.50
2022-10-11T07:28:32.157Z,3.30
2022-10-11T07:30:59.816Z,3.80
2022-10-11T07:33:27.052Z,3.37
2022-10-11T07:35:57.654Z,3.57
2022-10-11T07:38:26.483Z,3.23
2022-10-11T07:40:54.103Z,4.33
2022-10-11T07:43:21.354Z,3.97
2022-10-11T07:45:51.062Z,3.57
2022-10-11T07:48:18.254Z,4.33
2022-10-11T07:50:45.471Z,3.77
2022-10-11T07:53:12.678Z,3.90
2022-10-11T07:55:41.362Z,3.37
2022-10-11T07:58:08.619Z,3.13
2022-10-11T08:00:35.960Z,3.93
2022-10-11T08:03:03.461Z,3.83
2022-10-11T08:05:30.920Z,4.10
2022-10-11T08:07:58.226Z,4.30
2022-10-11T08:10:25.558Z,4.43
2022-10-11T08:12:54.598Z,3.90
2022-10-11T08:15:22.101Z,3.43
2022-10-11T08:17:49.380Z,3.73
2022-10-11T08:20:16.732Z,3.90
2022-10-11T08:22:43.998Z,3.50
2022-10-11T08:25:11.235Z,3.70
2022-10-11T08:27:38.506Z,3.90
2022-10-11T08:30:08.039Z,4.13
2022-10-11T08:32:35.329Z,4.10
2022-10-11T08:35:02.512Z,3.70
2022-10-11T08:37:29.778Z,3.10
2022-10-11T08:39:56.997Z,3.90
2022-10-11T08:42:29.705Z,3.97
2022-10-11T08:45:10.553Z,3.67
2022-10-11T08:47:46.842Z,3.13
2022-10-11T08:50:17.548Z,3.10
2022-10-11T08:52:53.317Z,2.90
2022-10-11T08:55:25.565Z,3.43
2022-10-11T08:57:53.583Z,3.00
2022-10-11T09:00:21.315Z,3.20
2022-10-11T09:03:08.051Z,3.07
2022-10-11T09:05:36.813Z,2.77
2022-10-11T09:08:08.764Z,3.13
2022-10-11T09:10:44.051Z,3.17
2022-10-11T09:13:19.146Z,2.87
2022-10-11T09:15:51.217Z,3.27
2022-10-11T09:18:41.312Z,2.90
2022-10-11T09:21:20.659Z,3.30
2022-10-11T09:24:00.126Z,2.57
2022-10-11T09:26:28.270Z,2.47
2022-10-11T09:29:01.412Z,3.10
2022-10-11T09:31:29.323Z,3.37
2022-10-11T09:33:59.681Z,2.23
2022-10-11T09:36:29.838Z,2.60
2022-10-11T09:39:04.321Z,2.50
2022-10-11T09:41:37.118Z,2.53
2022-10-11T09:44:07.220Z,3.83
2022-10-11T09:46:42.146Z,2.67
2022-10-11T09:52:50.208Z,2.77
2022-10-11T09:55:30.927Z,2.57
2022-10-11T09:57:58.142Z,2.40
2022-10-11T10:00:26.470Z,2.77
2022-10-11T10:02:54.323Z,3.33
2022-10-11T10:05:22.411Z,3.00
2022-10-11T10:08:04.499Z,2.73
2022-10-11T10:10:34.876Z,2.97
2022-10-11T10:13:03.355Z,3.27
2022-10-11T10:15:31.618Z,2.57
2022-10-11T10:17:59.120Z,3.13
2022-10-11T10:20:27.906Z,2.90
2022-10-11T10:22:55.122Z,2.50
2022-10-11T10:25:25.946Z,2.77
2022-10-11T10:27:57.531Z,2.93
2022-10-11T10:30:24.819Z,4.00
2022-10-11T10:32:53.411Z,3.03
2022-10-11T10:35:41.581Z,2.70
2022-10-11T10:38:12.904Z,2.80
2022-10-11T10:40:43.454Z,2.83
2022-10-11T10:43:13.365Z,3.30
2022-10-11T10:45:46.261Z,3.50
2022-10-11T10:48:22.791Z,2.37
2022-10-11T10:50:51.801Z,2.97
2022-10-11T10:53:23.886Z,2.70
2022-10-11T10:55:55.541Z,3.23
2022-10-11T10:58:28.970Z,2.00
2022-10-11T11:00:58.539Z,2.50
2022-10-11T11:03:29.842Z,2.67
2022-10-11T11:06:00.121Z,2.83
2022-10-11T11:08:33.210Z,2.77
2022-10-11T11:11:05.030Z,3.00
2022-10-11T11:13:36.003Z,2.67
2022-10-11T11:16:07.684Z,2.70
2022-10-11T11:18:39.337Z,3.00
2022-10-11T11:21:12.349Z,3.47
2022-10-11T11:23:43.110Z,3.10
2022-10-11T11:26:15.941Z,2.70
2022-10-11T11:28:50.930Z,2.87
2022-10-11T11:31:24.830Z,2.67
2022-10-11T11:33:56.965Z,2.33
2022-10-11T11:36:26.871Z,2.73
2022-10-11T11:38:56.284Z,2.57
2022-10-11T11:41:27.221Z,3.07
2022-10-11T11:43:59.478Z,3.53
2022-10-11T11:46:29.585Z,3.07
2022-10-11T11:48:59.003Z,3.00
2022-10-11T11:51:30.721Z,2.33
2022-10-11T11:54:05.231Z,2.63
2022-10-11T11:56:38.962Z,2.50
2022-10-11T11:59:10.808Z,2.57
2022-10-11T12:01:40.201Z,2.20
2022-10-11T12:04:11.975Z,1.97
2022-10-11T12:06:52.499Z,3.23
2022-10-11T12:09:26.614Z,2.40
2022-10-11T12:11:57.150Z,2.60
2022-10-11T12:14:26.436Z,2.40
2022-10-11T12:17:11.116Z,2.63
2022-10-11T12:19:39.385Z,2.93
2022-10-11T12:22:36.051Z,2.10
2022-10-11T12:25:25.212Z,2.57
2022-10-11T12:27:54.325Z,2.73
2022-10-11T12:30:39.873Z,2.40
2022-10-11T12:33:13.397Z,2.30
2022-10-11T12:36:04.179Z,2.23
2022-10-11T12:38:35.138Z,2.33
2022-10-11T12:41:17.294Z,2.80
2022-10-11T12:43:59.449Z,2.63
2022-10-11T12:46:58.698Z,2.40
2022-10-11T12:49:33.066Z,2.70
2022-10-11T12:52:01.394Z,2.70
2022-10-11T12:54:50.082Z,2.40
2022-10-11T12:57:28.539Z,2.27
2022-10-11T12:59:55.870Z,2.23
2022-10-11T13:02:28.846Z,2.83
2022-10-11T13:05:05.282Z,2.20
2022-10-11T13:07:32.830Z,2.17
2022-10-11T13:10:00.111Z,2.60
2022-10-11T13:18:06.583Z,2.20
2022-10-11T13:20:38.782Z,2.67
2022-10-11T13:23:20.273Z,1.77
2022-10-11T13:25:47.486Z,2.60
2022-10-11T13:28:36.507Z,2.40
2022-10-11T13:31:25.503Z,2.10
2022-10-11T13:33:58.319Z,3.10
2022-10-11T13:36:27.240Z,2.50
2022-10-11T13:38:57.968Z,2.57
2022-10-11T13:41:26.479Z,2.30
2022-10-11T13:43:53.978Z,2.10
2022-10-11T13:46:22.655Z,1.90
2022-10-11T13:49:13.776Z,2.50
2022-10-11T13:51:42.526Z,2.43
2022-10-11T13:54:13.820Z,2.23
2022-10-11T13:56:44.751Z,2.60
2022-10-11T13:59:15.300Z,2.70
2022-10-11T14:01:44.949Z,2.40
2022-10-11T14:04:13.190Z,2.70
2022-10-11T14:06:44.134Z,1.70
2022-10-11T14:09:17.051Z,2.87
2022-10-11T14:11:44.247Z,3.93
2022-10-11T14:14:29.814Z,2.40
2022-10-11T14:16:58.663Z,3.73
2022-10-11T14:19:28.750Z,2.80
2022-10-11T14:21:57.443Z,2.53
2022-10-11T14:24:24.690Z,3.23
2022-10-11T14:26:53.333Z,3.17
2022-10-11T14:29:22.614Z,2.27
2022-10-11T14:31:50.013Z,2.40
2022-10-11T14:34:19.200Z,2.97
2022-10-11T14:36:46.720Z,3.67
2022-10-11T14:39:19.238Z,3.13
2022-10-11T14:41:46.580Z,2.40
2022-10-11T14:44:14.097Z,2.23
2022-10-11T14:46:41.376Z,2.17
2022-10-11T14:49:12.981Z,1.93
2022-10-11T14:51:40.829Z,2.47
2022-10-11T14:54:08.193Z,2.90
2022-10-11T14:56:36.903Z,2.53
2022-10-11T14:59:04.518Z,2.27
2022-10-11T15:01:31.909Z,2.10
2022-10-11T15:03:59.147Z,2.17
2022-10-11T15:06:29.550Z,2.40
2022-10-11T15:08:56.787Z,2.17
2022-10-11T15:11:29.130Z,2.73
2022-10-11T15:13:57.737Z,2.30
2022-10-11T15:16:25.073Z,2.73
2022-10-11T15:18:52.362Z,2.77
2022-10-11T15:21:19.959Z,2.27
2022-10-11T15:23:49.674Z,2.87
2022-10-11T15:26:18.241Z,2.47
2022-10-11T15:28:45.943Z,2.03
2022-10-11T15:31:14.594Z,2.77
2022-10-11T15:33:42.070Z,2.40
2022-10-11T15:36:12.134Z,2.67
2022-10-11T15:38:39.416Z,2.93
2022-10-11T15:41:06.769Z,2.20
2022-10-11T15:43:34.093Z,2.70
2022-10-11T15:46:02.679Z,3.00
2022-10-11T15:48:31.544Z,2.33
2022-10-11T15:50:58.888Z,2.23
2022-10-11T15:53:27.359Z,2.50
2022-10-11T15:55:55.482Z,2.80
2022-10-11T15:58:23.507Z,2.77
2022-10-11T16:00:51.931Z,2.77
2022-10-11T16:03:19.190Z,2.30
2022-10-11T16:05:47.889Z,3.83
2022-10-11T16:08:15.228Z,2.10
2022-10-11T16:10:42.808Z,1.67
2022-10-11T16:13:10.474Z,1.93
2022-10-11T16:15:44.407Z,2.97
2022-10-11T16:18:35.543Z,2.47
2022-10-11T16:21:08.750Z,2.33
2022-10-11T16:23:36.688Z,1.63
2022-10-11T16:26:05.963Z,1.90
2022-10-11T16:28:33.713Z,2.47
2022-10-11T16:31:00.938Z,2.77
2022-10-11T16:33:28.169Z,1.77
2022-10-11T16:35:55.416Z,1.97
2022-10-11T16:38:24.036Z,2.70
2022-10-11T16:40:51.326Z,2.70
2022-10-11T16:43:18.575Z,3.03
2022-10-11T16:45:46.770Z,2.20
2022-10-11T16:48:14.004Z,2.20
2022-10-11T16:50:41.236Z,2.50
2022-10-11T16:53:08.465Z,2.10
2022-10-11T16:55:39.881Z,1.90
2022-10-11T16:58:07.099Z,2.40
2022-10-11T17:00:34.554Z,2.30
2022-10-11T17:03:01.779Z,2.23
2022-10-11T17:05:28.962Z,2.13
2022-10-11T17:07:56.183Z,2.63
2022-10-11T17:10:23.354Z,2.67
2022-10-11T17:12:51.919Z,2.60
2022-10-11T17:15:19.151Z,3.07
2022-10-11T17:17:46.327Z,2.70
2022-10-11T17:20:13.530Z,2.40
2022-10-11T17:22:40.756Z,2.03
2022-10-11T17:25:08.264Z,2.87
2022-10-11T17:27:35.457Z,2.10
2022-10-11T17:30:04.417Z,2.73
2022-10-11T17:32:31.607Z,2.80
2022-10-11T17:34:58.827Z,2.50
2022-10-11T17:37:26.145Z,2.97
2022-10-11T17:39:53.551Z,3.00
2022-10-11T17:42:20.767Z,3.33
2022-10-11T17:44:47.990Z,3.23
2022-10-11T17:47:16.803Z,3.07
2022-10-11T17:49:43.995Z,2.77
2022-10-11T17:52:11.169Z,2.63
2022-10-11T17:54:38.411Z,2.90
2022-10-11T17:57:05.914Z,3.17
2022-10-11T17:59:33.131Z,2.27
2022-10-11T18:02:00.410Z,2.10
2022-10-11T18:04:29.111Z,2.40
2022-10-11T18:06:56.630Z,2.47
2022-10-11T18:09:24.192Z,2.97
2022-10-11T18:11:51.693Z,3.30
2022-10-11T18:14:18.963Z,2.90
2022-10-11T18:16:46.396Z,3.30
2022-10-11T18:19:13.981Z,2.77
2022-10-11T18:21:42.879Z,2.67
2022-10-11T18:24:11.970Z,3.00
2022-10-11T18:26:39.341Z,3.43
2022-10-11T18:29:06.551Z,2.80
2022-10-11T18:31:34.062Z,3.20
2022-10-11T18:34:01.335Z,3.07
2022-10-11T18:36:29.167Z,3.60
2022-10-11T18:38:58.903Z,3.57
2022-10-11T18:41:27.436Z,3.23
2022-10-11T18:43:56.782Z,3.40
2022-10-11T18:46:26.039Z,3.33
2022-10-11T18:48:54.054Z,3.63
2022-10-11T18:51:23.046Z,3.80
2022-10-11T18:53:50.755Z,3.30
2022-10-11T18:56:20.130Z,3.50
2022-10-11T18:58:47.979Z,4.03
2022-10-11T19:01:16.382Z,4.33
2022-10-11T19:03:44.341Z,4.10
2022-10-11T19:06:12.907Z,3.63
2022-10-11T19:08:40.123Z,4.03
2022-10-11T19:11:07.881Z,4.20
2022-10-11T19:13:36.931Z,4.10
2022-10-11T19:16:05.373Z,4.27
2022-10-11T19:18:33.010Z,5.07
2022-10-11T19:21:03.328Z,4.60
2022-10-11T19:23:32.732Z,4.70
2022-10-11T19:25:59.975Z,5.50
2022-10-11T19:28:27.409Z,5.50
2022-10-11T19:31:01.074Z,4.87
2022-10-11T19:33:28.355Z,4.87
2022-10-11T19:35:55.789Z,5.47
2022-10-11T19:38:23.062Z,5.07
2022-10-11T19:40:50.285Z,4.77
2022-10-11T19:43:17.503Z,4.33
2022-10-11T19:45:44.712Z,5.00
2022-10-11T19:48:13.366Z,5.23
2022-10-11T19:50:40.907Z,5.47
2022-10-11T19:53:08.086Z,5.17
2022-10-11T19:55:35.801Z,4.63
2022-10-11T19:58:08.049Z,4.87
2022-10-11T20:00:35.640Z,4.77
2022-10-11T20:03:02.883Z,4.50
2022-10-11T20:05:31.579Z,3.83
2022-10-11T20:07:58.873Z,3.87
2022-10-11T20:10:26.166Z,4.47
2022-10-11T20:12:53.411Z,4.23
2022-10-11T20:15:20.633Z,4.33
2022-10-11T20:17:47.859Z,3.77
2022-10-11T20:20:15.186Z,3.90
2022-10-11T20:22:43.962Z,3.57
2022-10-11T20:25:11.204Z,4.30
2022-10-11T20:27:38.485Z,4.00
2022-10-11T20:30:06.217Z,5.00
2022-10-11T20:32:33.500Z,3.90
2022-10-11T20:35:00.697Z,4.37
2022-10-11T20:37:28.007Z,4.63
2022-10-11T20:39:56.566Z,4.30
2022-10-11T20:42:28.925Z,4.23
2022-10-11T20:44:57.098Z,4.83
2022-10-11T20:47:24.419Z,4.73
2022-10-11T20:49:51.697Z,4.77
2022-10-11T20:52:18.885Z,5.43
2022-10-11T20:54:46.146Z,6.33
2022-10-11T20:57:14.744Z,4.63
2022-10-11T20:59:41.960Z,4.80
2022-10-11T21:02:10.524Z,4.67
2022-10-11T21:04:37.838Z,5.00
2022-10-11T21:07:05.071Z,6.27
2022-10-11T21:09:32.299Z,5.60
2022-10-11T21:12:01.129Z,4.77
2022-10-11T21:14:29.763Z,4.47
2022-10-11T21:16:57.095Z,5.30
2022-10-11T21:19:24.441Z,4.43
2022-10-11T21:21:53.864Z,5.10
2022-10-11T21:24:21.448Z,3.90
2022-10-11T21:26:48.653Z,4.10
2022-10-11T21:29:15.923Z,4.87
2022-10-11T21:31:44.495Z,4.67
2022-10-11T21:34:11.707Z,4.73
2022-10-11T21:36:39.067Z,4.23
2022-10-11T21:39:06.290Z,4.30
2022-10-11T21:41:33.467Z,3.93
2022-10-11T21:44:00.673Z,3.93
2022-10-11T21:49:18.062Z,3.97
2022-10-11T21:51:45.355Z,5.30
2022-10-11T21:54:12.545Z,4.97
2022-10-11T21:56:39.829Z,4.50
2022-10-11T21:59:11.035Z,3.80
2022-10-11T22:01:39.662Z,4.17
2022-10-11T22:04:07.262Z,4.70
2022-10-11T22:06:36.194Z,4.23
2022-10-11T22:09:04.208Z,4.87
2022-10-11T22:11:31.649Z,4.37
2022-10-11T22:13:59.054Z,4.67
2022-10-11T22:16:26.584Z,3.87
2022-10-11T22:18:54.732Z,4.27
2022-10-11T22:21:22.904Z,4.37
2022-10-11T22:23:52.321Z,4.13
2022-10-11T22:26:20.634Z,4.23
2022-10-11T22:28:48.175Z,4.10
2022-10-11T22:31:16.202Z,4.00
2022-10-11T22:36:16.028Z,4.30
2022-10-11T22:38:43.714Z,4.07
2022-10-11T22:41:12.423Z,3.77
2022-10-11T22:43:39.655Z,3.83
2022-10-11T22:46:07.191Z,3.90
2022-10-11T22:48:34.652Z,4.47
2022-10-11T22:51:01.937Z,3.83
2022-10-11T22:53:29.138Z,3.63
2022-10-11T22:55:56.318Z,3.57
2022-10-11T22:58:24.963Z,4.73
2022-10-11T23:00:52.149Z,3.57
2022-10-11T23:03:19.434Z,4.30
2022-10-11T23:05:54.343Z,3.70
2022-10-11T23:08:21.594Z,4.60
2022-10-11T23:10:48.844Z,3.97
2022-10-11T23:13:16.075Z,4.33
2022-10-11T23:15:52.026Z,3.53
2022-10-11T23:18:19.320Z,3.83
2022-10-11T23:20:46.531Z,3.77
2022-10-11T23:23:13.726Z,3.50
2022-10-11T23:25:40.966Z,3.67
2022-10-11T23:28:08.222Z,4.37
2022-10-11T23:30:35.551Z,3.70
2022-10-11T23:33:04.586Z,3.83
2022-10-11T23:35:31.790Z,3.40
2022-10-11T23:37:58.987Z,4.07
2022-10-11T23:40:26.247Z,3.80
2022-10-11T23:42:54.803Z,3.73
2022-10-11T23:45:25.289Z,3.70
2022-10-11T23:47:52.496Z,3.80
2022-10-11T23:50:21.085Z,3.43
2022-10-11T23:52:49.426Z,3.60
2022-10-11T23:55:16.665Z,3.57
2022-10-11T23:57:43.854Z,3.23
